Time;durP1;ratioP1;P1;durP2;ratioP2;P2;SDS_P1;SDS_P2;PMS_P1;PMS_P2;Temp;Humidity;BMP_temperature;BMP_pressure;BME280_temperature;BME280_humidity;BME280_pressure;Samples;Min_cycle;Max_cycle;Signal;HPM_P1;HPM_P2
2023/08/26 00:00:45;;;;;;;;;;;;;;;21.34;85.79;99633.47;5051323;28;1971;-63
2023/08/26 00:03:13;;;;;;;;;;;;;;;21.29;87.04;99636.91;5034776;28;886;-63
2023/08/26 00:05:41;;;;;;;;;;;;;;;21.25;87.86;99634.31;5052370;28;824;-63
2023/08/26 00:08:08;;;;;;;;;;;;;;;21.19;89.05;99636.22;5052441;28;799;-63
2023/08/26 00:10:35;;;;;;;;;;;;;;;21.10;90.22;99639.09;5052291;28;827;-64
2023/08/26 00:13:02;;;;;;;;;;;;;;;21.00;91.59;99636.34;5052301;28;906;-64
2023/08/26 00:15:28;;;;;;;;;;;;;;;20.90;93.07;99640.47;5052280;28;871;-64
2023/08/26 00:17:55;;;;;;;;;;;;;;;20.82;94.70;99635.69;5052135;28;926;-64
2023/08/26 00:20:22;;;;;;;;;;;;;;;20.71;95.95;99636.22;5052218;28;915;-64
2023/08/26 00:22:50;;;;;;;;;;;;;;;20.57;97.34;99640.47;5052161;28;1941;-63
2023/08/26 00:25:17;;;;;;;;;;;;;;;20.47;98.85;99631.31;5052122;28;867;-63
2023/08/26 00:27:44;;;;;;;;;;;;;;;20.45;99.33;99631.00;5051989;28;860;-64
2023/08/26 00:30:11;;;;;;;;;;;;;;;20.44;99.56;99635.09;5052246;28;879;-64
2023/08/26 00:32:37;;;;;;;;;;;;;;;20.43;99.78;99633.53;5052044;28;876;-63
2023/08/26 00:35:04;;;;;;;;;;;;;;;20.45;99.66;99631.00;5051925;28;827;-65
2023/08/26 00:37:31;;;;;;;;;;;;;;;20.41;99.77;99630.41;5051961;28;919;-64
2023/08/26 00:39:58;;;;;;;;;;;;;;;20.36;99.82;99625.44;5051911;28;828;-64
2023/08/26 00:42:24;;;;;;;;;;;;;;;20.28;99.45;99625.00;5051766;28;1878;-64
2023/08/26 00:44:51;;;;;;;;;;;;;;;20.21;99.40;99624.59;5051485;28;1401;-64
2023/08/26 00:47:18;;;;;;;;;;;;;;;20.12;99.65;99628.16;5051703;28;832;-64
2023/08/26 00:49:44;;;;;;;;;;;;;;;20.04;99.00;99624.16;5051812;28;863;-64
2023/08/26 00:52:11;;;;;;;;;;;;;;;19.97;98.02;99631.66;5051978;28;999;-64
2023/08/26 00:54:38;;;;;;;;;;;;;;;19.92;96.71;99631.50;5051671;28;1020;-64
2023/08/26 00:57:06;;;;;;;;;;;;;;;19.85;96.33;99634.66;5033861;28;1260;-64
2023/08/26 00:59:33;;;;;;;;;;;;;;;19.78;96.29;99635.75;5051449;28;863;-64
2023/08/26 01:02:01;;;;;;;;;;;;;;;19.73;96.50;99631.53;5051599;28;1906;-63
2023/08/26 01:04:28;;;;;;;;;;;;;;;19.65;96.94;99629.50;5051587;28;820;-63
2023/08/26 01:06:55;;;;;;;;;;;;;;;19.60;97.19;99633.72;5051610;28;883;-63
2023/08/26 01:09:23;;;;;;;;;;;;;;;19.56;97.68;99638.69;5051604;28;839;-63
2023/08/26 01:12:04;;;;;;;;;;;;;;;19.57;97.98;99634.66;5052571;28;859;-64
2023/08/26 01:14:40;;;;;;;;;;;;;;;19.58;98.50;99636.97;5055633;28;824;-64
2023/08/26 01:17:07;;;;;;;;;;;;;;;19.65;99.09;99627.50;5055520;28;828;-64
2023/08/26 01:19:34;;;;;;;;;;;;;;;19.70;99.07;99629.69;5055637;28;843;-64
2023/08/26 01:22:04;;;;;;;;;;;;;;;19.70;99.72;99621.28;5055392;28;2389;-63
2023/08/26 01:24:31;;;;;;;;;;;;;;;19.67;100.00;99624.19;5055811;28;816;-63
2023/08/26 01:26:58;;;;;;;;;;;;;;;19.62;100.00;99616.44;5055593;28;947;-64
2023/08/26 01:29:26;;;;;;;;;;;;;;;19.57;100.00;99620.66;5055595;28;891;-64
2023/08/26 01:32:05;;;;;;;;;;;;;;;19.53;100.00;99615.19;5055567;28;837;-63
2023/08/26 01:34:33;;;;;;;;;;;;;;;19.56;100.00;99613.47;5055344;28;820;-64
2023/08/26 01:37:02;;;;;;;;;;;;;;;19.58;100.00;99611.75;5055275;28;840;-64
2023/08/26 01:39:29;;;;;;;;;;;;;;;19.58;100.00;99613.78;5055159;28;895;-63
2023/08/26 01:41:57;;;;;;;;;;;;;;;19.52;100.00;99608.03;5055139;28;1941;-63
2023/08/26 01:44:25;;;;;;;;;;;;;;;19.47;100.00;99602.28;5055130;28;1311;-63
2023/08/26 01:46:53;;;;;;;;;;;;;;;19.44;100.00;99606.81;5055094;28;804;-63
2023/08/26 01:49:19;;;;;;;;;;;;;;;19.40;100.00;99597.00;5055266;28;871;-63
2023/08/26 01:51:46;;;;;;;;;;;;;;;19.38;100.00;99597.47;5055011;28;805;-63
2023/08/26 01:54:13;;;;;;;;;;;;;;;19.35;100.00;99601.19;5037112;28;1268;-63
2023/08/26 01:56:39;;;;;;;;;;;;;;;19.32;100.00;99599.34;5054881;28;868;-63
2023/08/26 01:59:06;;;;;;;;;;;;;;;19.30;100.00;99607.41;5054711;28;922;-63
2023/08/26 02:01:35;;;;;;;;;;;;;;;19.30;100.00;99596.22;5054917;28;1969;-63
2023/08/26 02:04:02;;;;;;;;;;;;;;;19.31;100.00;99604.16;5036815;28;1200;-64
2023/08/26 02:06:28;;;;;;;;;;;;;;;19.28;100.00;99607.88;5054740;28;1035;-63
2023/08/26 02:08:55;;;;;;;;;;;;;;;19.22;100.00;99609.75;5054581;28;828;-63
2023/08/26 02:11:21;;;;;;;;;;;;;;;19.18;100.00;99597.91;5054742;28;844;-63
2023/08/26 02:13:48;;;;;;;;;;;;;;;19.13;100.00;99604.16;5054555;28;862;-64
2023/08/26 02:16:14;;;;;;;;;;;;;;;19.15;100.00;99602.44;5054495;28;832;-64
2023/08/26 02:18:41;;;;;;;;;;;;;;;19.16;100.00;99604.00;5054467;28;960;-64
2023/08/26 02:21:08;;;;;;;;;;;;;;;19.16;100.00;99603.22;5054259;28;1858;-63
2023/08/26 02:23:34;;;;;;;;;;;;;;;19.19;100.00;99607.91;5053424;28;1051;-63
2023/08/26 02:26:00;;;;;;;;;;;;;;;19.22;100.00;99603.38;5054323;28;884;-63
2023/08/26 02:28:27;;;;;;;;;;;;;;;19.21;100.00;99608.19;5054217;28;864;-63
2023/08/26 02:30:54;;;;;;;;;;;;;;;19.18;100.00;99611.91;5054549;28;816;-63
2023/08/26 02:33:21;;;;;;;;;;;;;;;19.08;100.00;99602.75;5054219;28;943;-63
2023/08/26 02:35:48;;;;;;;;;;;;;;;19.06;100.00;99608.03;5054036;28;873;-63
2023/08/26 02:38:14;;;;;;;;;;;;;;;19.07;100.00;99609.59;5054254;28;843;-63
2023/08/26 02:40:41;;;;;;;;;;;;;;;19.13;100.00;99604.16;5054063;28;875;-64
2023/08/26 02:43:08;;;;;;;;;;;;;;;19.13;100.00;99607.72;5053884;28;1878;-64
2023/08/26 02:45:35;;;;;;;;;;;;;;;19.13;100.00;99607.72;5053744;28;1330;-63
2023/08/26 02:48:02;;;;;;;;;;;;;;;19.15;100.00;99604.47;5053831;28;855;-64
2023/08/26 02:50:30;;;;;;;;;;;;;;;19.11;100.00;99599.00;5053858;28;884;-63
2023/08/26 02:52:57;;;;;;;;;;;;;;;19.10;100.00;99594.66;5053813;28;817;-63
2023/08/26 02:55:24;;;;;;;;;;;;;;;19.14;100.00;99605.72;5053812;28;852;-63
2023/08/26 02:57:50;;;;;;;;;;;;;;;19.16;100.00;99603.22;5053621;28;840;-64
2023/08/26 03:00:17;;;;;;;;;;;;;;;19.20;100.00;99600.25;5053668;28;868;-64
2023/08/26 03:02:42;;;;;;;;;;;;;;;19.24;100.00;99615.66;5053577;28;1975;-63
2023/08/26 03:05:09;;;;;;;;;;;;;;;19.23;100.00;99605.72;5053732;28;861;-64
2023/08/26 03:07:36;;;;;;;;;;;;;;;19.20;100.00;99608.66;5053576;28;842;-64
2023/08/26 03:10:03;;;;;;;;;;;;;;;19.21;100.00;99607.44;5053826;28;895;-63
2023/08/26 03:12:30;;;;;;;;;;;;;;;19.21;100.00;99611.00;5053493;28;963;-63
2023/08/26 03:14:56;;;;;;;;;;;;;;;19.22;100.00;99612.56;5053420;28;836;-64
2023/08/26 03:17:23;;;;;;;;;;;;;;;19.24;100.00;99615.66;5053485;28;859;-64
2023/08/26 03:19:50;;;;;;;;;;;;;;;19.26;100.00;99618.78;5053281;28;902;-65
2023/08/26 03:22:17;;;;;;;;;;;;;;;19.30;100.00;99625.00;5053249;28;1887;-64
2023/08/26 03:24:44;;;;;;;;;;;;;;;19.35;100.00;99627.22;5053176;28;927;-64
2023/08/26 03:27:10;;;;;;;;;;;;;;;19.42;100.00;99622.53;5052719;28;899;-64
2023/08/26 03:29:37;;;;;;;;;;;;;;;19.47;100.00;99624.69;5053245;28;867;-64
2023/08/26 03:32:04;;;;;;;;;;;;;;;19.52;100.00;99633.28;5053047;28;855;-64
2023/08/26 03:34:32;;;;;;;;;;;;;;;19.55;100.00;99642.75;5052746;28;828;-64
2023/08/26 03:36:57;;;;;;;;;;;;;;;19.57;100.00;99637.47;5052761;28;831;-63
2023/08/26 03:39:24;;;;;;;;;;;;;;;19.55;100.00;99639.97;5053058;28;946;-63
2023/08/26 03:41:51;;;;;;;;;;;;;;;19.54;100.00;99639.19;5052779;28;1898;-64
2023/08/26 03:44:17;;;;;;;;;;;;;;;19.55;100.00;99637.16;5052817;28;1209;-64
2023/08/26 03:46:44;;;;;;;;;;;;;;;19.54;100.00;99641.19;5052848;28;895;-64
2023/08/26 03:49:11;;;;;;;;;;;;;;;19.56;100.00;99633.88;5053113;28;910;-64
2023/08/26 03:51:37;;;;;;;;;;;;;;;19.60;100.00;99636.50;5052981;28;844;-64
2023/08/26 03:54:04;;;;;;;;;;;;;;;19.62;100.00;99638.84;5052838;28;891;-64
2023/08/26 03:56:31;;;;;;;;;;;;;;;19.68;100.00;99632.16;5052427;28;910;-64
2023/08/26 03:58:58;;;;;;;;;;;;;;;19.72;100.00;99640.44;5052651;28;923;-64
2023/08/26 04:01:25;;;;;;;;;;;;;;;19.74;100.00;99637.94;5052744;28;1914;-64
2023/08/26 04:03:52;;;;;;;;;;;;;;;19.77;100.00;99642.59;5052572;28;832;-64
2023/08/26 04:06:18;;;;;;;;;;;;;;;19.83;99.00;99639.94;5034651;28;1616;-64
2023/08/26 04:08:45;;;;;;;;;;;;;;;19.89;96.90;99626.84;5052457;28;878;-64
2023/08/26 04:11:12;;;;;;;;;;;;;;;19.97;94.39;99634.47;5052480;28;855;-64
2023/08/26 04:13:39;;;;;;;;;;;;;;;20.07;92.49;99635.19;5052290;28;879;-64
2023/08/26 04:16:06;;;;;;;;;;;;;;;20.16;90.98;99635.19;5052363;28;910;-64
2023/08/26 04:18:33;;;;;;;;;;;;;;;20.26;88.49;99633.13;5052156;28;889;-64
2023/08/26 04:21:00;;;;;;;;;;;;;;;20.34;86.80;99627.94;5052233;28;1913;-64
2023/08/26 04:23:27;;;;;;;;;;;;;;;20.42;86.17;99633.97;5052042;28;898;-64
2023/08/26 04:25:58;;;;;;;;;;;;;;;20.49;85.91;99636.47;5052268;28;867;-64
2023/08/26 04:28:24;;;;;;;;;;;;;;;20.56;86.01;99636.88;5052073;28;902;-64
2023/08/26 04:30:51;;;;;;;;;;;;;;;20.66;86.06;99636.88;5052084;28;946;-64
2023/08/26 04:33:20;;;;;;;;;;;;;;;20.74;86.46;99644.47;5051931;28;887;-64
2023/08/26 04:35:46;;;;;;;;;;;;;;;20.85;86.86;99637.56;5051901;28;882;-64
2023/08/26 04:38:13;;;;;;;;;;;;;;;20.98;86.83;99647.28;5051900;28;824;-64
2023/08/26 04:40:41;;;;;;;;;;;;;;;21.14;86.32;99642.50;5051863;28;874;-64
2023/08/26 04:43:10;;;;;;;;;;;;;;;21.29;85.71;99631.28;5052140;28;1886;-64
2023/08/26 04:45:38;;;;;;;;;;;;;;;21.49;84.61;99642.72;5051581;28;1411;-64
2023/08/26 04:48:05;;;;;;;;;;;;;;;21.69;83.72;99639.25;5051223;28;840;-64
2023/08/26 04:50:32;;;;;;;;;;;;;;;21.86;82.61;99648.00;5051774;28;858;-65
2023/08/26 04:52:59;;;;;;;;;;;;;;;22.03;81.65;99646.25;5051936;28;907;-65
2023/08/26 04:55:25;;;;;;;;;;;;;;;22.17;80.48;99643.94;5051562;28;848;-65
2023/08/26 04:57:52;;;;;;;;;;;;;;;22.31;79.31;99636.75;5051704;28;993;-65
2023/08/26 05:00:19;;;;;;;;;;;;;;;22.69;76.70;99641.41;5051562;28;891;-66
2023/08/26 05:02:46;;;;;;;;;;;;;;;23.38;71.77;99638.97;5051595;28;1977;-66
2023/08/26 05:05:13;;;;;;;;;;;;;;;23.82;67.40;99637.94;5051504;28;856;-65
2023/08/26 05:07:40;;;;;;;;;;;;;;;23.90;66.00;99637.47;5051639;28;864;-65
2023/08/26 05:10:07;;;;;;;;;;;;;;;23.82;65.17;99634.34;5051613;28;843;-65
2023/08/26 05:12:34;;;;;;;;;;;;;;;23.72;65.24;99636.53;5051456;28;913;-65
2023/08/26 05:15:02;;;;;;;;;;;;;;;23.73;65.79;99638.09;5051644;28;875;-65
2023/08/26 05:17:29;;;;;;;;;;;;;;;23.89;65.88;99648.00;5051479;28;891;-65
2023/08/26 05:19:55;;;;;;;;;;;;;;;24.05;65.61;99635.34;5051412;28;847;-66
2023/08/26 05:22:22;;;;;;;;;;;;;;;24.23;64.96;99637.00;5051397;28;1886;-66
2023/08/26 05:24:49;;;;;;;;;;;;;;;24.40;63.99;99642.78;5051359;28;918;-65
2023/08/26 05:27:16;;;;;;;;;;;;;;;24.61;63.31;99637.81;5051364;28;839;-65
2023/08/26 05:29:43;;;;;;;;;;;;;;;24.93;62.05;99638.53;5051362;28;911;-65
2023/08/26 05:32:09;;;;;;;;;;;;;;;25.18;60.36;99638.91;5051365;28;914;-65
2023/08/26 05:34:36;;;;;;;;;;;;;;;25.35;59.70;99639.75;5051393;28;820;-66
2023/08/26 05:37:02;;;;;;;;;;;;;;;25.54;59.08;99631.59;5051299;28;870;-65
2023/08/26 05:39:28;;;;;;;;;;;;;;;25.76;58.23;99638.56;5051359;28;883;-66
2023/08/26 05:41:55;;;;;;;;;;;;;;;25.94;57.91;99640.16;5051181;28;1885;-65
2023/08/26 05:44:22;;;;;;;;;;;;;;;26.16;57.11;99643.00;5051320;28;1448;-66
2023/08/26 05:46:49;;;;;;;;;;;;;;;26.39;56.77;99640.16;5051458;28;880;-66
2023/08/26 05:49:16;;;;;;;;;;;;;;;26.63;56.24;99640.41;5051248;28;830;-66
2023/08/26 05:51:42;;;;;;;;;;;;;;;26.82;56.73;99632.13;5051086;28;865;-66
2023/08/26 05:54:09;;;;;;;;;;;;;;;27.03;56.84;99641.03;5051025;28;812;-66
2023/08/26 05:56:36;;;;;;;;;;;;;;;27.23;57.48;99634.31;5051181;28;899;-66
2023/08/26 05:59:02;;;;;;;;;;;;;;;27.43;56.89;99636.00;5053809;28;820;-67
2023/08/26 06:01:29;;;;;;;;;;;;;;;27.74;56.58;99642.53;5054814;28;1963;-66
2023/08/26 06:03:58;;;;;;;;;;;;;;;27.95;57.08;99645.00;5054726;28;927;-68
2023/08/26 06:06:25;;;;;;;;;;;;;;;28.17;57.53;99646.91;5054806;28;899;-67
2023/08/26 06:08:52;;;;;;;;;;;;;;;28.48;57.58;99635.00;5054741;28;824;-67
2023/08/26 06:11:19;;;;;;;;;;;;;;;28.82;56.23;99636.72;5054607;28;848;-67
2023/08/26 06:13:45;;;;;;;;;;;;;;;29.03;56.09;99637.00;5054605;28;856;-67
2023/08/26 06:16:18;;;;;;;;;;;;;;;29.26;55.58;99646.06;5036637;28;1291;-66
2023/08/26 06:18:47;;;;;;;;;;;;;;;29.82;53.79;99642.47;5054502;28;915;-66
2023/08/26 06:21:15;;;;;;;;;;;;;;;30.60;51.11;99645.34;5054305;28;1886;-66
2023/08/26 06:23:41;;;;;;;;;;;;;;;31.38;48.63;99647.19;5054387;28;828;-65
2023/08/26 06:26:08;;;;;;;;;;;;;;;32.06;46.48;99646.44;5054301;28;930;-65
2023/08/26 06:28:37;;;;;;;;;;;;;;;32.40;45.19;99645.59;5054387;28;887;-65
2023/08/26 06:31:03;;;;;;;;;;;;;;;32.88;44.07;99652.66;5054172;28;859;-66
2023/08/26 06:33:30;;;;;;;;;;;;;;;32.45;44.69;99654.03;5054217;28;817;-65
2023/08/26 06:35:56;;;;;;;;;;;;;;;32.00;45.80;99654.41;5054203;28;895;-65
2023/08/26 06:38:22;;;;;;;;;;;;;;;31.80;45.34;99662.34;5054194;28;828;-66
2023/08/26 06:40:56;;;;;;;;;;;;;;;31.51;45.98;99662.22;5054097;28;839;-66
2023/08/26 06:43:23;;;;;;;;;;;;;;;31.23;46.90;99662.03;5054351;28;1886;-64
2023/08/26 06:45:50;;;;;;;;;;;;;;;31.05;47.30;99667.31;5053639;28;1293;-66
2023/08/26 06:48:17;;;;;;;;;;;;;;;30.85;48.45;99665.09;5036226;28;1765;-66
2023/08/26 06:50:52;;;;;;;;;;;;;;;30.69;48.35;99673.41;5036206;28;1311;-66
2023/08/26 06:53:22;;;;;;;;;;;;;;;30.72;49.16;99671.56;5053770;28;849;-65
2023/08/26 06:55:49;;;;;;;;;;;;;;;30.80;48.99;99669.59;5053971;28;875;-66
2023/08/26 06:58:16;;;;;;;;;;;;;;;30.90;47.70;99676.44;5053785;28;912;-67
2023/08/26 07:00:44;;;;;;;;;;;;;;;31.02;48.07;99679.81;5053718;28;820;-67
2023/08/26 07:03:11;;;;;;;;;;;;;;;31.19;47.35;99681.56;5053573;28;1914;-66
2023/08/26 07:05:38;;;;;;;;;;;;;;;31.57;46.60;99678.47;5053534;28;888;-65
2023/08/26 07:08:05;;;;;;;;;;;;;;;32.09;45.31;99676.75;5053787;28;813;-65
2023/08/26 07:10:32;;;;;;;;;;;;;;;32.49;44.51;99670.84;5052925;28;919;-65
2023/08/26 07:12:59;;;;;;;;;;;;;;;33.04;43.78;99678.50;5053481;28;844;-66
2023/08/26 07:15:25;;;;;;;;;;;;;;;33.72;41.85;99668.72;5053608;28;914;-66
2023/08/26 07:17:55;;;;;;;;;;;;;;;34.58;40.79;99676.88;5053343;28;855;-65
2023/08/26 07:20:22;;;;;;;;;;;;;;;35.20;39.58;99671.06;5053395;28;847;-65
2023/08/26 07:22:49;;;;;;;;;;;;;;;35.84;37.63;99683.25;5053167;28;1959;-66
2023/08/26 07:25:17;;;;;;;;;;;;;;;35.56;37.41;99682.22;5053211;28;927;-66
2023/08/26 07:27:45;;;;;;;;;;;;;;;35.43;37.56;99679.59;5053175;28;864;-66
2023/08/26 07:30:13;;;;;;;;;;;;;;;35.42;37.66;99675.19;5053297;28;851;-66
2023/08/26 07:32:41;;;;;;;;;;;;;;;35.12;37.51;99673.91;5053000;28;950;-67
2023/08/26 07:35:08;;;;;;;;;;;;;;;34.89;37.62;99674.00;5053042;28;824;-65
2023/08/26 07:37:36;;;;;;;;;;;;;;;34.99;37.51;99674.91;5053028;28;840;-65
2023/08/26 07:40:05;;;;;;;;;;;;;;;35.20;36.94;99674.69;5052895;28;891;-66
2023/08/26 07:42:35;;;;;;;;;;;;;;;35.40;35.81;99669.25;5052790;28;1890;-65
2023/08/26 07:48:12;;;;;;;;;;;;;;;35.34;36.05;99672.38;5037773;28;1344;-66
2023/08/26 07:50:39;;;;;;;;;;;;;;;35.42;35.87;99673.09;5052942;28;860;-67
2023/08/26 07:53:06;;;;;;;;;;;;;;;35.60;35.61;99670.34;5052755;28;825;-66
2023/08/26 07:55:32;;;;;;;;;;;;;;;35.51;35.77;99660.97;5052609;28;895;-67
2023/08/26 07:58:00;;;;;;;;;;;;;;;35.34;35.80;99672.38;5052691;28;868;-66
2023/08/26 08:00:27;;;;;;;;;;;;;;;35.47;35.13;99665.59;5052807;28;879;-66
2023/08/26 08:02:55;;;;;;;;;;;;;;;35.46;34.79;99670.56;5052725;28;1910;-67
2023/08/26 08:05:21;;;;;;;;;;;;;;;35.71;34.05;99664.16;5052422;28;828;-67
2023/08/26 08:07:49;;;;;;;;;;;;;;;35.95;32.87;99660.56;5052788;28;840;-66
2023/08/26 08:10:15;;;;;;;;;;;;;;;36.19;32.84;99666.94;5052357;28;851;-67
2023/08/26 08:12:42;;;;;;;;;;;;;;;36.87;31.79;99666.94;5052399;28;808;-67
2023/08/26 08:15:09;;;;;;;;;;;;;;;37.00;30.90;99663.72;5052342;28;922;-70
2023/08/26 08:17:34;;;;;;;;;;;;;;;36.63;31.37;99654.88;5052271;28;857;-67
2023/08/26 08:20:02;;;;;;;;;;;;;;;36.34;32.11;99652.44;5052288;28;860;-66
2023/08/26 08:22:41;;;;;;;;;;;;;;;36.20;31.94;99654.06;5051119;28;1973;-70
2023/08/26 08:25:08;;;;;;;;;;;;;;;36.05;31.96;99657.81;5034340;28;1303;-66
2023/08/26 08:27:37;;;;;;;;;;;;;;;36.37;31.91;99659.88;5052008;28;868;-66
2023/08/26 08:30:04;;;;;;;;;;;;;;;36.75;31.38;99649.41;5052060;28;986;-69
2023/08/26 08:32:31;;;;;;;;;;;;;;;36.78;31.00;99656.84;5052026;28;826;-69
2023/08/26 08:34:57;;;;;;;;;;;;;;;36.58;31.05;99656.63;5052055;28;871;-70
2023/08/26 08:37:23;;;;;;;;;;;;;;;36.65;31.15;99649.28;5051930;28;871;-66
2023/08/26 08:39:50;;;;;;;;;;;;;;;36.92;30.82;99657.28;5051891;28;820;-72
2023/08/26 08:42:18;;;;;;;;;;;;;;;36.98;29.97;99652.78;5051732;28;1952;-68
2023/08/26 08:44:46;;;;;;;;;;;;;;;36.63;30.37;99649.13;5051773;28;974;-68
2023/08/26 08:47:13;;;;;;;;;;;;;;;36.50;30.18;99643.66;5051975;28;844;-66
2023/08/26 08:49:41;;;;;;;;;;;;;;;36.73;29.49;99647.09;5051816;28;915;-67
2023/08/26 08:52:10;;;;;;;;;;;;;;;36.69;30.72;99649.63;5051594;28;919;-67
2023/08/26 08:54:36;;;;;;;;;;;;;;;36.56;30.44;99653.56;5052620;28;855;-67
2023/08/26 08:57:04;;;;;;;;;;;;;;;36.43;30.55;99658.91;5052273;28;872;-66
2023/08/26 08:59:34;;;;;;;;;;;;;;;36.38;30.01;99652.78;5051763;28;887;-67
2023/08/26 09:02:02;;;;;;;;;;;;;;;36.33;30.29;99650.91;5051523;28;1991;-67
2023/08/26 09:04:29;;;;;;;;;;;;;;;36.19;30.17;99643.94;5051650;28;968;-66
2023/08/26 09:06:55;;;;;;;;;;;;;;;36.31;29.91;99642.09;5051526;28;911;-67
2023/08/26 09:09:22;;;;;;;;;;;;;;;36.29;29.82;99639.03;5051705;28;871;-72
2023/08/26 09:11:49;;;;;;;;;;;;;;;36.22;30.18;99648.50;5051527;28;875;-70
2023/08/26 09:14:16;;;;;;;;;;;;;;;36.21;30.40;99643.34;5051635;28;856;-65
2023/08/26 09:16:43;;;;;;;;;;;;;;;36.68;30.01;99648.13;5051498;28;879;-66
2023/08/26 09:19:11;;;;;;;;;;;;;;;36.88;29.09;99642.56;5051590;28;816;-66
2023/08/26 09:21:44;;;;;;;;;;;;;;;36.66;29.23;99645.09;5051296;28;1972;-70
2023/08/26 09:24:14;;;;;;;;;;;;;;;36.53;29.91;99642.47;5033569;28;860;-66
2023/08/26 09:26:43;;;;;;;;;;;;;;;36.55;29.54;99639.78;5051679;28;893;-68
2023/08/26 09:29:18;;;;;;;;;;;;;;;36.33;29.26;99633.63;5051380;28;848;-67
2023/08/26 09:31:54;;;;;;;;;;;;;;;36.38;29.32;99640.50;5051483;28;824;-66
2023/08/26 09:34:25;;;;;;;;;;;;;;;36.49;29.50;99633.50;5054736;28;1042;-66
2023/08/26 09:36:51;;;;;;;;;;;;;;;36.41;29.36;99618.44;5055395;28;895;-65
2023/08/26 09:39:18;;;;;;;;;;;;;;;36.39;29.66;99624.78;5055125;28;876;-69
2023/08/26 09:41:45;;;;;;;;;;;;;;;36.03;30.26;99622.38;5037306;28;1893;-66
2023/08/26 09:44:13;;;;;;;;;;;;;;;36.08;29.93;99609.84;5055081;28;965;-65
2023/08/26 09:46:39;;;;;;;;;;;;;;;36.30;30.17;99619.69;5055107;28;879;-67
2023/08/26 09:49:06;;;;;;;;;;;;;;;36.44;29.60;99620.13;5054201;28;1329;-66
2023/08/26 09:51:33;;;;;;;;;;;;;;;36.42;29.54;99608.44;5054926;28;883;-65
2023/08/26 09:54:00;;;;;;;;;;;;;;;36.43;29.83;99604.97;5054970;28;844;-70
2023/08/26 09:56:27;;;;;;;;;;;;;;;36.70;29.08;99610.88;5054900;28;801;-66
2023/08/26 09:58:55;;;;;;;;;;;;;;;36.61;29.37;99614.41;5054955;28;808;-66
2023/08/26 10:01:23;;;;;;;;;;;;;;;36.03;29.25;99602.22;5054778;28;1910;-65
2023/08/26 10:04:15;;;;;;;;;;;;;;;36.26;29.34;99605.69;5054864;28;824;-63
2023/08/26 10:06:43;;;;;;;;;;;;;;;36.19;29.56;99603.66;5052466;28;1026;-64
2023/08/26 10:09:28;;;;;;;;;;;;;;;36.05;29.60;99606.03;5055156;28;907;-67
2023/08/26 10:43:13;;;;;;;;;;;;;;;36.29;29.06;99589.38;6027740;23;1655;-65
2023/08/26 10:45:50;;;;;;;;;;;;;;;36.20;29.07;99587.91;5028741;28;1055;-65
2023/08/26 10:48:16;;;;;;;;;;;;;;;35.91;29.35;99590.44;5034079;28;891;-66
2023/08/26 10:50:47;;;;;;;;;;;;;;;35.94;28.96;99590.03;5034100;28;812;-69
2023/08/26 10:53:14;;;;;;;;;;;;;;;35.99;28.91;99588.25;5033999;28;827;-65
2023/08/26 10:55:41;;;;;;;;;;;;;;;36.00;28.95;99584.03;5033993;28;907;-64
2023/08/26 10:58:12;;;;;;;;;;;;;;;36.14;28.66;99585.28;5034157;28;828;-66
2023/08/26 11:00:41;;;;;;;;;;;;;;;36.33;28.09;99587.59;5033976;28;827;-67
2023/08/26 11:03:09;;;;;;;;;;;;;;;36.09;28.71;99588.38;5033768;28;1985;-68
2023/08/26 11:05:36;;;;;;;;;;;;;;;36.08;28.78;99586.84;5033751;28;827;-66
2023/08/26 11:08:04;;;;;;;;;;;;;;;36.22;28.91;99579.47;5033706;28;811;-66
2023/08/26 11:10:35;;;;;;;;;;;;;;;36.50;28.35;99574.59;5033671;28;850;-66
2023/08/26 11:13:03;;;;;;;;;;;;;;;36.57;28.56;99583.16;5033855;28;828;-65
2023/08/26 11:15:32;;;;;;;;;;;;;;;36.98;27.60;99583.69;5033819;28;899;-66
2023/08/26 11:17:59;;;;;;;;;;;;;;;36.94;27.26;99579.72;5033665;28;950;-68
2023/08/26 11:20:27;;;;;;;;;;;;;;;36.74;27.77;99576.69;5033551;28;840;-65
2023/08/26 11:22:54;;;;;;;;;;;;;;;36.65;28.33;99571.56;5033382;28;1961;-70
2023/08/26 11:25:21;;;;;;;;;;;;;;;36.37;28.81;99587.19;5033341;28;891;-68
2023/08/26 11:27:48;;;;;;;;;;;;;;;36.24;28.49;99581.75;5033356;28;840;-66
2023/08/26 11:30:15;;;;;;;;;;;;;;;36.46;28.53;99574.25;5033532;28;880;-71
2023/08/26 11:32:42;;;;;;;;;;;;;;;36.73;28.62;99583.03;5033285;28;856;-66
2023/08/26 11:35:11;;;;;;;;;;;;;;;37.07;27.59;99573.59;5033207;28;871;-66
2023/08/26 11:37:44;;;;;;;;;;;;;;;37.32;27.97;99576.34;5033046;28;828;-68
2023/08/26 11:40:11;;;;;;;;;;;;;;;37.31;27.39;99574.81;5033210;28;891;-67
2023/08/26 11:42:38;;;;;;;;;;;;;;;37.14;27.79;99566.22;5032871;28;1962;-65
2023/08/26 11:45:08;;;;;;;;;;;;;;;37.10;27.37;99563.78;5032745;28;1392;-68
2023/08/26 11:47:34;;;;;;;;;;;;;;;37.11;27.70;99558.78;5032969;28;838;-71
2023/08/26 11:50:01;;;;;;;;;;;;;;;37.38;27.33;99559.56;5032987;28;887;-66
2023/08/26 11:52:34;;;;;;;;;;;;;;;37.51;27.62;99560.53;5032815;28;816;-67
2023/08/26 11:55:11;;;;;;;;;;;;;;;37.45;27.23;99560.03;5033068;28;828;-63
2023/08/26 11:57:39;;;;;;;;;;;;;;;37.32;27.10;99550.44;5033054;28;817;-66
2023/08/26 12:00:09;;;;;;;;;;;;;;;37.05;27.62;99561.91;5032642;28;889;-65
2023/08/26 12:02:36;;;;;;;;;;;;;;;36.87;27.76;99554.63;5014919;28;1971;-66
2023/08/26 12:05:04;;;;;;;;;;;;;;;36.65;28.33;99542.03;5032595;28;828;-66
2023/08/26 12:07:31;;;;;;;;;;;;;;;36.92;28.04;99542.84;5032582;28;946;-65
2023/08/26 12:10:08;;;;;;;;;;;;;;;37.07;27.38;99541.16;5032513;28;872;-69
2023/08/26 12:12:35;;;;;;;;;;;;;;;37.00;28.23;99539.91;5032510;28;820;-68
2023/08/26 12:15:08;;;;;;;;;;;;;;;37.11;27.73;99541.50;5032442;28;889;-70
2023/08/26 12:17:45;;;;;;;;;;;;;;;37.11;27.66;99527.84;5032535;28;809;-68
2023/08/26 12:20:31;;;;;;;;;;;;;;;36.94;28.25;99534.38;5032615;28;860;-67
2023/08/26 12:23:05;;;;;;;;;;;;;;;36.86;29.03;99525.09;5032219;28;1897;-65
2023/08/26 12:25:36;;;;;;;;;;;;;;;37.09;28.56;99530.56;5032334;28;851;-69
2023/08/26 12:28:06;;;;;;;;;;;;;;;37.28;27.81;99518.41;5032296;28;832;-70
2023/08/26 12:30:34;;;;;;;;;;;;;;;37.13;28.60;99521.50;5032548;28;804;-68
2023/08/26 12:33:00;;;;;;;;;;;;;;;36.96;29.00;99523.03;5032124;28;851;-70
2023/08/26 12:35:27;;;;;;;;;;;;;;;36.98;29.11;99508.81;5014529;28;1177;-70
2023/08/26 12:40:58;;;;;;;;;;;;;;;36.93;29.39;99512.69;5031654;28;651;-69
2023/08/26 12:43:24;;;;;;;;;;;;;;;36.72;29.83;99498.00;5031580;28;1989;-68
2023/08/26 12:45:50;;;;;;;;;;;;;;;36.84;29.69;99509.75;5014241;28;1316;-64
2023/08/26 12:48:17;;;;;;;;;;;;;;;36.85;28.99;99508.38;5031983;28;863;-64
2023/08/26 12:50:44;;;;;;;;;;;;;;;36.72;29.15;99513.16;5032068;28;847;-65
2023/08/26 12:53:11;;;;;;;;;;;;;;;36.97;28.95;99500.75;5031963;28;890;-65
2023/08/26 12:55:37;;;;;;;;;;;;;;;37.56;28.45;99501.84;5031921;28;864;-65
2023/08/26 12:58:06;;;;;;;;;;;;;;;37.92;27.93;99498.19;5031828;28;828;-67
2023/08/26 13:00:33;;;;;;;;;;;;;;;38.41;27.39;99506.94;5031897;28;862;-67
2023/08/26 13:02:59;;;;;;;;;;;;;;;38.38;27.15;99508.16;5031731;28;1917;-65
2023/08/26 13:05:26;;;;;;;;;;;;;;;38.00;27.43;99513.25;5031715;28;812;-65
2023/08/26 13:07:52;;;;;;;;;;;;;;;37.75;28.31;99512.72;5031247;28;851;-66
2023/08/26 13:10:18;;;;;;;;;;;;;;;37.48;27.82;99506.97;5031931;28;883;-64
2023/08/26 13:12:44;;;;;;;;;;;;;;;37.35;28.03;99511.00;5031625;28;911;-69
2023/08/26 13:15:11;;;;;;;;;;;;;;;37.05;28.66;99507.16;5031688;28;832;-64
2023/08/26 13:17:37;;;;;;;;;;;;;;;37.49;28.12;99520.78;5031716;28;832;-68
2023/08/26 13:20:04;;;;;;;;;;;;;;;37.76;27.89;99511.34;5031730;28;809;-71
2023/08/26 13:22:31;;;;;;;;;;;;;;;37.49;28.34;99506.38;5031902;28;1957;-64
2023/08/26 13:24:58;;;;;;;;;;;;;;;37.44;28.35;99513.16;5031673;28;915;-65
2023/08/26 13:27:25;;;;;;;;;;;;;;;37.16;27.97;99509.53;5031660;28;812;-66
2023/08/26 13:29:51;;;;;;;;;;;;;;;37.01;28.44;99500.31;5031673;28;839;-63
2023/08/26 13:32:18;;;;;;;;;;;;;;;37.04;28.47;99508.50;5031771;28;868;-67
2023/08/26 13:34:45;;;;;;;;;;;;;;;37.07;28.63;99515.22;5013901;28;1185;-64
2023/08/26 13:37:12;;;;;;;;;;;;;;;36.93;28.62;99518.44;5031789;28;871;-69
2023/08/26 13:39:38;;;;;;;;;;;;;;;36.55;28.98;99513.13;5031877;28;1182;-65
2023/08/26 13:42:07;;;;;;;;;;;;;;;36.48;29.57;99508.25;5031378;28;1890;-64